sensor_id;sensor_type;location;lat;lon;timestamp;pressure;altitude;pressure_sealevel;temperature;humidity
7990;BME280;4040;42.848;23.034;2023-10-13T00:01:00;95393.44;;;7.63;100.00
7990;BME280;4040;42.848;23.034;2023-10-13T00:11:15;95404.06;;;7.56;100.00
7990;BME280;4040;42.848;23.034;2023-10-13T00:17:06;95404.94;;;7.63;100.00
7990;BME280;4040;42.848;23.034;2023-10-13T00:23:03;95395.72;;;7.61;100.00
7990;BME280;4040;42.848;23.034;2023-10-13T00:28:54;95390.44;;;7.68;100.00
7990;BME280;4040;42.848;23.034;2023-10-13T00:34:55;95393.53;;;7.70;100.00
7990;BME280;4040;42.848;23.034;2023-10-13T00:40:45;95377.22;;;7.49;100.00
7990;BME280;4040;42.848;23.034;2023-10-13T00:46:41;95391.28;;;7.39;100.00
7990;BME280;4040;42.848;23.034;2023-10-13T00:52:34;95383.97;;;7.36;100.00
7990;BME280;4040;42.848;23.034;2023-10-13T00:58:24;95397.78;;;7.38;100.00
7990;BME280;4040;42.848;23.034;2023-10-13T01:00:53;95397.19;;;7.22;100.00
7990;BME280;4040;42.848;23.034;2023-10-13T01:06:45;95400.50;;;7.12;100.00
7990;BME280;4040;42.848;23.034;2023-10-13T01:12:34;95402.16;;;7.20;100.00
7990;BME280;4040;42.848;23.034;2023-10-13T01:18:23;95405.47;;;7.10;100.00
7990;BME280;4040;42.848;23.034;2023-10-13T01:24:17;95397.28;;;6.96;100.00
7990;BME280;4040;42.848;23.034;2023-10-13T01:30:11;95402.78;;;7.10;100.00
7990;BME280;4040;42.848;23.034;2023-10-13T01:36:00;95398.25;;;7.14;100.00
7990;BME280;4040;42.848;23.034;2023-10-13T01:41:55;95399.91;;;7.26;100.00
7990;BME280;4040;42.848;23.034;2023-10-13T01:47:44;95399.97;;;7.29;100.00
7990;BME280;4040;42.848;23.034;2023-10-13T01:53:33;95392.56;;;7.19;100.00
7990;BME280;4040;42.848;23.034;2023-10-13T01:59:24;95358.88;;;6.85;100.00
7990;BME280;4040;42.848;23.034;2023-10-13T02:05:14;95388.19;;;7.04;100.00
7990;BME280;4040;42.848;23.034;2023-10-13T02:11:04;95390.53;;;7.09;100.00
7990;BME280;4040;42.848;23.034;2023-10-13T02:16:55;95393.47;;;6.97;100.00
7990;BME280;4040;42.848;23.034;2023-10-13T02:22:59;95406.16;;;6.74;100.00
7990;BME280;4040;42.848;23.034;2023-10-13T02:28:48;95406.72;;;6.61;100.00
7990;BME280;4040;42.848;23.034;2023-10-13T02:34:42;95411.22;;;6.53;100.00
7990;BME280;4040;42.848;23.034;2023-10-13T02:40:35;95400.13;;;6.55;100.00
7990;BME280;4040;42.848;23.034;2023-10-13T02:46:24;95392.66;;;6.41;100.00
7990;BME280;4040;42.848;23.034;2023-10-13T02:52:17;95425.41;;;6.31;100.00
7990;BME280;4040;42.848;23.034;2023-10-13T02:58:07;95420.88;;;6.35;100.00
7990;BME280;4040;42.848;23.034;2023-10-13T03:03:56;95418.41;;;6.23;100.00
7990;BME280;4040;42.848;23.034;2023-10-13T03:14:09;95404.91;;;6.16;100.00
7990;BME280;4040;42.848;23.034;2023-10-13T03:20:12;95392.66;;;6.15;100.00
7990;BME280;4040;42.848;23.034;2023-10-13T03:26:02;95381.47;;;6.32;100.00
7990;BME280;4040;42.848;23.034;2023-10-13T03:31:59;95381.97;;;6.41;100.00
7990;BME280;4040;42.848;23.034;2023-10-13T03:37:54;95384.25;;;6.39;100.00
7990;BME280;4040;42.848;23.034;2023-10-13T03:43:44;95380.03;;;6.12;100.00
7990;BME280;4040;42.848;23.034;2023-10-13T03:49:41;95381.09;;;6.08;100.00
7990;BME280;4040;42.848;23.034;2023-10-13T03:55:29;95379.78;;;5.98;100.00
7990;BME280;4040;42.848;23.034;2023-10-13T04:01:22;95376.81;;;6.03;100.00
7990;BME280;4040;42.848;23.034;2023-10-13T04:07:20;95382.97;;;6.07;100.00
7990;BME280;4040;42.848;23.034;2023-10-13T04:10:13;95383.03;;;6.11;100.00
7990;BME280;4040;42.848;23.034;2023-10-13T04:16:19;95404.69;;;5.80;100.00
7990;BME280;4040;42.848;23.034;2023-10-13T04:22:23;95410.13;;;5.45;100.00
7990;BME280;4040;42.848;23.034;2023-10-13T04:28:32;95423.47;;;5.64;100.00
7990;BME280;4040;42.848;23.034;2023-10-13T04:34:38;95418.16;;;5.26;100.00
7990;BME280;4040;42.848;23.034;2023-10-13T04:40:28;95416.75;;;5.32;100.00
7990;BME280;4040;42.848;23.034;2023-10-13T04:46:23;95407.63;;;5.33;100.00
7990;BME280;4040;42.848;23.034;2023-10-13T04:49:05;95427.59;;;5.39;100.00
7990;BME280;4040;42.848;23.034;2023-10-13T04:51:54;95425.03;;;5.46;100.00
7990;BME280;4040;42.848;23.034;2023-10-13T04:58:01;95444.25;;;5.74;100.00
7990;BME280;4040;42.848;23.034;2023-10-13T05:04:01;95459.78;;;5.27;100.00
7990;BME280;4040;42.848;23.034;2023-10-13T05:13:32;95443.66;;;5.81;100.00
7990;BME280;4040;42.848;23.034;2023-10-13T05:19:38;95456.72;;;6.31;100.00
7990;BME280;4040;42.848;23.034;2023-10-13T05:25:44;95467.81;;;8.46;100.00
7990;BME280;4040;42.848;23.034;2023-10-13T05:31:51;95447.50;;;10.01;100.00
7990;BME280;4040;42.848;23.034;2023-10-13T05:37:58;95470.41;;;11.84;100.00
7990;BME280;4040;42.848;23.034;2023-10-13T05:44:12;95468.06;;;12.51;100.00
7990;BME280;4040;42.848;23.034;2023-10-13T05:46:58;95464.50;;;13.12;100.00
7990;BME280;4040;42.848;23.034;2023-10-13T05:53:10;95461.28;;;13.24;100.00
7990;BME280;4040;42.848;23.034;2023-10-13T05:56:00;95457.84;;;14.47;100.00
7990;BME280;4040;42.848;23.034;2023-10-13T06:02:08;95455.50;;;17.02;91.92
7990;BME280;4040;42.848;23.034;2023-10-13T06:08:14;95461.47;;;20.85;62.85
7990;BME280;4040;42.848;23.034;2023-10-13T06:14:20;95473.63;;;18.63;71.61
7990;BME280;4040;42.848;23.034;2023-10-13T06:17:04;95475.00;;;19.05;70.45
7990;BME280;4040;42.848;23.034;2023-10-13T06:23:12;95476.03;;;19.79;68.40
7990;BME280;4040;42.848;23.034;2023-10-13T06:25:53;95483.34;;;19.48;67.08
7990;BME280;4040;42.848;23.034;2023-10-13T06:31:59;95480.69;;;22.06;59.07
7990;BME280;4040;42.848;23.034;2023-10-13T06:37:49;95473.47;;;22.35;54.82
7990;BME280;4040;42.848;23.034;2023-10-13T06:43:40;95470.28;;;22.87;54.95
7990;BME280;4040;42.848;23.034;2023-10-13T06:49:30;95464.50;;;26.13;46.90
7990;BME280;4040;42.848;23.034;2023-10-13T06:52:04;95472.53;;;25.02;47.27
7990;BME280;4040;42.848;23.034;2023-10-13T06:57:54;95475.66;;;26.74;45.24
7990;BME280;4040;42.848;23.034;2023-10-13T07:03:48;95473.97;;;30.52;37.99
7990;BME280;4040;42.848;23.034;2023-10-13T07:09:40;95469.78;;;30.29;36.42
7990;BME280;4040;42.848;23.034;2023-10-13T07:15:36;95467.91;;;30.48;35.75
7990;BME280;4040;42.848;23.034;2023-10-13T07:21:34;95458.34;;;30.84;34.17
7990;BME280;4040;42.848;23.034;2023-10-13T07:27:22;95458.19;;;32.02;33.57
7990;BME280;4040;42.848;23.034;2023-10-13T07:29:51;95454.06;;;33.13;32.53
7990;BME280;4040;42.848;23.034;2023-10-13T07:36:55;95456.53;;;31.93;32.17
7990;BME280;4040;42.848;23.034;2023-10-13T07:39:25;95462.97;;;31.83;33.12
7990;BME280;4040;42.848;23.034;2023-10-13T07:45:20;95462.63;;;34.38;30.32
7990;BME280;4040;42.848;23.034;2023-10-13T07:51:12;95448.78;;;34.06;30.72
7990;BME280;4040;42.848;23.034;2023-10-13T07:57:04;95438.88;;;33.66;31.29
7990;BME280;4040;42.848;23.034;2023-10-13T08:02:58;95452.88;;;31.32;33.47
7990;BME280;4040;42.848;23.034;2023-10-13T08:05:35;95448.53;;;31.84;32.49
7990;BME280;4040;42.848;23.034;2023-10-13T08:11:43;95470.13;;;28.64;36.93
7990;BME280;4040;42.848;23.034;2023-10-13T08:17:33;95450.94;;;30.57;35.03
7990;BME280;4040;42.848;23.034;2023-10-13T08:20:01;95444.75;;;31.82;33.71
7990;BME280;4040;42.848;23.034;2023-10-13T08:22:37;95438.69;;;32.75;32.63
7990;BME280;4040;42.848;23.034;2023-10-13T08:28:26;95429.41;;;32.86;31.34
7990;BME280;4040;42.848;23.034;2023-10-13T08:38:55;95437.69;;;31.03;33.79
7990;BME280;4040;42.848;23.034;2023-10-13T08:41:23;95437.84;;;29.16;36.95
7990;BME280;4040;42.848;23.034;2023-10-13T08:47:18;95437.84;;;30.52;35.92
7990;BME280;4040;42.848;23.034;2023-10-13T08:53:08;95433.78;;;36.87;29.03
7990;BME280;4040;42.848;23.034;2023-10-13T08:55:53;95446.69;;;39.28;26.40
7990;BME280;4040;42.848;23.034;2023-10-13T09:01:54;95427.00;;;40.81;23.77
7990;BME280;4040;42.848;23.034;2023-10-13T09:08:03;95409.88;;;41.86;22.02
7990;BME280;4040;42.848;23.034;2023-10-13T09:10:35;95386.13;;;40.38;22.45
7990;BME280;4040;42.848;23.034;2023-10-13T09:13:11;95404.56;;;36.75;26.55
7990;BME280;4040;42.848;23.034;2023-10-13T09:15:44;95402.47;;;35.46;27.11
7990;BME280;4040;42.848;23.034;2023-10-13T09:21:47;95409.44;;;33.39;30.20
7990;BME280;4040;42.848;23.034;2023-10-13T09:24:20;95407.97;;;34.70;29.65
7990;BME280;4040;42.848;23.034;2023-10-13T09:30:18;95393.84;;;36.08;27.86
7990;BME280;4040;42.848;23.034;2023-10-13T09:36:11;95388.81;;;37.77;26.79
7990;BME280;4040;42.848;23.034;2023-10-13T09:42:01;95369.59;;;37.21;26.13
7990;BME280;4040;42.848;23.034;2023-10-13T09:47:52;95377.16;;;38.03;24.46
7990;BME280;4040;42.848;23.034;2023-10-13T09:53:55;95373.03;;;38.04;24.71
7990;BME280;4040;42.848;23.034;2023-10-13T09:59:48;95366.78;;;36.91;25.68
7990;BME280;4040;42.848;23.034;2023-10-13T10:05:41;95368.16;;;37.97;25.76
7990;BME280;4040;42.848;23.034;2023-10-13T10:12:00;95357.13;;;38.70;25.35
7990;BME280;4040;42.848;23.034;2023-10-13T10:17:49;95339.56;;;41.09;22.10
7990;BME280;4040;42.848;23.034;2023-10-13T10:20:28;95342.38;;;38.54;23.80
7990;BME280;4040;42.848;23.034;2023-10-13T10:23:07;95327.28;;;37.96;24.34
7990;BME280;4040;42.848;23.034;2023-10-13T10:25:43;95323.16;;;37.97;24.83
7990;BME280;4040;42.848;23.034;2023-10-13T10:28:11;95340.34;;;34.66;26.62
7990;BME280;4040;42.848;23.034;2023-10-13T10:34:12;95334.25;;;35.16;27.28
7990;BME280;4040;42.848;23.034;2023-10-13T10:36:40;95343.00;;;35.33;27.50
7990;BME280;4040;42.848;23.034;2023-10-13T10:42:34;95337.38;;;35.33;27.19
7990;BME280;4040;42.848;23.034;2023-10-13T10:48:27;95327.28;;;37.96;26.17
7990;BME280;4040;42.848;23.034;2023-10-13T10:51:04;95321.78;;;39.01;24.29
7990;BME280;4040;42.848;23.034;2023-10-13T10:53:40;95300.84;;;39.96;22.75
7990;BME280;4040;42.848;23.034;2023-10-13T10:56:11;95309.69;;;42.39;20.42
7990;BME280;4040;42.848;23.034;2023-10-13T11:02:13;95296.38;;;43.73;19.32
7990;BME280;4040;42.848;23.034;2023-10-13T11:08:06;95289.25;;;37.18;24.27
7990;BME280;4040;42.848;23.034;2023-10-13T11:10:46;95309.41;;;34.10;25.98
7990;BME280;4040;42.848;23.034;2023-10-13T11:16:35;95303.97;;;32.62;30.40
7990;BME280;4040;42.848;23.034;2023-10-13T11:22:28;95302.44;;;33.05;29.19
7990;BME280;4040;42.848;23.034;2023-10-13T11:28:29;95282.91;;;36.65;26.30
7990;BME280;4040;42.848;23.034;2023-10-13T11:30:58;95273.44;;;39.80;22.22
7990;BME280;4040;42.848;23.034;2023-10-13T11:36:47;95273.88;;;39.01;21.93
7990;BME280;4040;42.848;23.034;2023-10-13T11:42:37;95270.34;;;33.25;26.27
7990;BME280;4040;42.848;23.034;2023-10-13T11:48:30;95272.72;;;30.60;30.27
7990;BME280;4040;42.848;23.034;2023-10-13T11:51:02;95267.06;;;30.42;31.09
7990;BME280;4040;42.848;23.034;2023-10-13T11:56:54;95262.94;;;28.70;32.13
7990;BME280;4040;42.848;23.034;2023-10-13T12:02:46;95257.47;;;27.93;34.89
7990;BME280;4040;42.848;23.034;2023-10-13T12:05:32;95246.34;;;27.71;34.38
7990;BME280;4040;42.848;23.034;2023-10-13T12:11:36;95253.34;;;27.39;34.46
7990;BME280;4040;42.848;23.034;2023-10-13T12:17:27;95237.72;;;27.36;35.24
7990;BME280;4040;42.848;23.034;2023-10-13T12:23:20;95239.50;;;27.34;34.31
7990;BME280;4040;42.848;23.034;2023-10-13T12:29:18;95241.63;;;27.02;34.43
7990;BME280;4040;42.848;23.034;2023-10-13T12:35:10;95238.44;;;27.15;34.51
7990;BME280;4040;42.848;23.034;2023-10-13T12:41:14;95230.81;;;27.04;33.90
7990;BME280;4040;42.848;23.034;2023-10-13T12:47:20;95228.25;;;26.90;34.42
7990;BME280;4040;42.848;23.034;2023-10-13T12:53:26;95229.53;;;26.94;34.88
7990;BME280;4040;42.848;23.034;2023-10-13T12:59:19;95221.19;;;26.83;34.15
7990;BME280;4040;42.848;23.034;2023-10-13T13:05:14;95215.06;;;26.63;35.48
7990;BME280;4040;42.848;23.034;2023-10-13T13:11:03;95223.97;;;26.41;35.35
7990;BME280;4040;42.848;23.034;2023-10-13T13:16:53;95226.59;;;26.20;36.25
7990;BME280;4040;42.848;23.034;2023-10-13T13:22:41;95216.97;;;26.10;35.71
7990;BME280;4040;42.848;23.034;2023-10-13T13:28:30;95220.91;;;25.98;35.81
7990;BME280;4040;42.848;23.034;2023-10-13T13:31:03;95224.03;;;25.85;36.29
7990;BME280;4040;42.848;23.034;2023-10-13T13:36:57;95214.94;;;26.05;36.90
7990;BME280;4040;42.848;23.034;2023-10-13T13:42:48;95208.66;;;26.04;36.22
7990;BME280;4040;42.848;23.034;2023-10-13T13:48:37;95197.91;;;25.81;36.41
7990;BME280;4040;42.848;23.034;2023-10-13T13:54:27;95221.25;;;25.80;36.60
7990;BME280;4040;42.848;23.034;2023-10-13T14:00:27;95220.38;;;25.63;37.62
7990;BME280;4040;42.848;23.034;2023-10-13T14:06:25;95211.44;;;25.48;37.97
7990;BME280;4040;42.848;23.034;2023-10-13T14:12:16;95212.09;;;25.37;38.81
7990;BME280;4040;42.848;23.034;2023-10-13T14:15:08;95205.81;;;25.37;38.42
7990;BME280;4040;42.848;23.034;2023-10-13T14:17:46;95214.25;;;25.28;39.28
7990;BME280;4040;42.848;23.034;2023-10-13T14:23:36;95214.25;;;25.28;37.63
7990;BME280;4040;42.848;23.034;2023-10-13T14:26:04;95227.97;;;25.48;37.64
7990;BME280;4040;42.848;23.034;2023-10-13T14:31:57;95223.44;;;25.45;35.46
7990;BME280;4040;42.848;23.034;2023-10-13T14:41:28;95216.47;;;25.24;35.42
7990;BME280;4040;42.848;23.034;2023-10-13T14:47:18;95223.50;;;25.05;35.52
7990;BME280;4040;42.848;23.034;2023-10-13T14:53:11;95222.00;;;24.84;37.47
7990;BME280;4040;42.848;23.034;2023-10-13T14:59:04;95220.22;;;24.61;35.10
7990;BME280;4040;42.848;23.034;2023-10-13T15:01:32;95223.97;;;24.58;35.29
7990;BME280;4040;42.848;23.034;2023-10-13T15:07:23;95227.91;;;24.37;35.65
7990;BME280;4040;42.848;23.034;2023-10-13T15:13:15;95226.47;;;24.07;36.79
7990;BME280;4040;42.848;23.034;2023-10-13T15:19:05;95238.16;;;23.73;37.52
7990;BME280;4040;42.848;23.034;2023-10-13T15:21:33;95236.44;;;23.61;37.83
7990;BME280;4040;42.848;23.034;2023-10-13T15:27:24;95210.66;;;23.15;37.63
7990;BME280;4040;42.848;23.034;2023-10-13T15:33:16;95234.06;;;22.87;38.44
7990;BME280;4040;42.848;23.034;2023-10-13T15:42:40;95240.50;;;22.37;39.87
7990;BME280;4040;42.848;23.034;2023-10-13T15:48:28;95243.13;;;21.99;39.86
7990;BME280;4040;42.848;23.034;2023-10-13T15:50:56;95241.94;;;21.91;39.81
7990;BME280;4040;42.848;23.034;2023-10-13T15:53:23;95246.56;;;21.76;40.46
7990;BME280;4040;42.848;23.034;2023-10-13T15:59:14;95240.88;;;21.11;43.22
7990;BME280;4040;42.848;23.034;2023-10-13T16:01:42;95253.53;;;20.91;44.38
7990;BME280;4040;42.848;23.034;2023-10-13T16:07:33;95264.06;;;20.17;46.09
7990;BME280;4040;42.848;23.034;2023-10-13T16:13:22;95270.47;;;19.62;46.20
7990;BME280;4040;42.848;23.034;2023-10-13T16:19:13;95280.69;;;19.19;51.59
7990;BME280;4040;42.848;23.034;2023-10-13T16:21:43;95277.34;;;19.02;49.64
7990;BME280;4040;42.848;23.034;2023-10-13T16:27:33;95273.88;;;18.68;50.69
7990;BME280;4040;42.848;23.034;2023-10-13T16:33:26;95295.09;;;18.39;52.72
7990;BME280;4040;42.848;23.034;2023-10-13T16:35:55;95270.16;;;18.03;53.99
7990;BME280;4040;42.848;23.034;2023-10-13T16:46:10;95303.28;;;17.64;58.93
7990;BME280;4040;42.848;23.034;2023-10-13T16:52:01;95299.16;;;17.31;64.75
7990;BME280;4040;42.848;23.034;2023-10-13T16:57:50;95292.47;;;17.07;68.04
7990;BME280;4040;42.848;23.034;2023-10-13T17:03:39;95308.47;;;17.05;69.94
7990;BME280;4040;42.848;23.034;2023-10-13T17:09:29;95311.59;;;16.75;77.54
7990;BME280;4040;42.848;23.034;2023-10-13T17:15:20;95324.34;;;16.30;78.79
7990;BME280;4040;42.848;23.034;2023-10-13T17:21:16;95319.44;;;15.74;84.19
7990;BME280;4040;42.848;23.034;2023-10-13T17:27:07;95328.25;;;15.62;85.63
7990;BME280;4040;42.848;23.034;2023-10-13T17:32:56;95332.50;;;15.43;91.42
7990;BME280;4040;42.848;23.034;2023-10-13T17:38:46;95334.34;;;15.31;96.10
7990;BME280;4040;42.848;23.034;2023-10-13T17:48:58;95341.59;;;14.95;100.00
7990;BME280;4040;42.848;23.034;2023-10-13T17:54:49;95346.97;;;14.56;100.00
7990;BME280;4040;42.848;23.034;2023-10-13T18:00:38;95357.31;;;14.61;100.00
7990;BME280;4040;42.848;23.034;2023-10-13T18:06:28;95348.94;;;14.52;100.00
7990;BME280;4040;42.848;23.034;2023-10-13T18:12:18;95352.47;;;14.26;100.00
7990;BME280;4040;42.848;23.034;2023-10-13T18:18:06;95345.22;;;13.93;100.00
7990;BME280;4040;42.848;23.034;2023-10-13T18:23:57;95358.50;;;13.84;100.00
7990;BME280;4040;42.848;23.034;2023-10-13T18:29:46;95359.84;;;13.69;100.00
7990;BME280;4040;42.848;23.034;2023-10-13T18:35:38;95361.66;;;13.79;100.00
7990;BME280;4040;42.848;23.034;2023-10-13T18:38:05;95356.44;;;13.65;100.00
7990;BME280;4040;42.848;23.034;2023-10-13T18:43:58;95353.94;;;13.77;100.00
7990;BME280;4040;42.848;23.034;2023-10-13T18:49:48;95366.28;;;13.82;100.00
7990;BME280;4040;42.848;23.034;2023-10-13T18:55:36;95379.88;;;13.75;100.00
7990;BME280;4040;42.848;23.034;2023-10-13T19:01:29;95378.31;;;13.47;100.00
7990;BME280;4040;42.848;23.034;2023-10-13T19:07:21;95376.81;;;13.43;100.00
7990;BME280;4040;42.848;23.034;2023-10-13T19:13:10;95374.38;;;13.22;100.00
7990;BME280;4040;42.848;23.034;2023-10-13T19:19:02;95374.16;;;13.06;100.00
7990;BME280;4040;42.848;23.034;2023-10-13T19:24:51;95380.38;;;13.03;100.00
7990;BME280;4040;42.848;23.034;2023-10-13T19:30:41;95368.84;;;12.99;100.00
7990;BME280;4040;42.848;23.034;2023-10-13T19:36:32;95345.72;;;12.51;100.00
7990;BME280;4040;42.848;23.034;2023-10-13T19:42:21;95375.69;;;12.66;100.00
7990;BME280;4040;42.848;23.034;2023-10-13T19:48:10;95372.88;;;12.77;100.00
7990;BME280;4040;42.848;23.034;2023-10-13T19:54:01;95381.47;;;12.65;100.00
7990;BME280;4040;42.848;23.034;2023-10-13T19:59:50;95385.63;;;12.36;100.00
7990;BME280;4040;42.848;23.034;2023-10-13T20:05:40;95384.72;;;12.46;100.00
7990;BME280;4040;42.848;23.034;2023-10-13T20:11:32;95378.41;;;12.19;100.00
7990;BME280;4040;42.848;23.034;2023-10-13T20:17:22;95388.03;;;12.20;100.00
7990;BME280;4040;42.848;23.034;2023-10-13T20:23:11;95392.97;;;11.74;100.00
7990;BME280;4040;42.848;23.034;2023-10-13T20:29:01;95389.16;;;11.61;100.00
7990;BME280;4040;42.848;23.034;2023-10-13T20:34:52;95376.19;;;11.25;100.00
7990;BME280;4040;42.848;23.034;2023-10-13T20:40:41;95389.38;;;11.02;100.00
7990;BME280;4040;42.848;23.034;2023-10-13T20:50:15;95375.44;;;11.28;100.00
7990;BME280;4040;42.848;23.034;2023-10-13T20:56:05;95377.72;;;11.33;100.00
7990;BME280;4040;42.848;23.034;2023-10-13T21:01:55;95347.25;;;11.39;100.00
7990;BME280;4040;42.848;23.034;2023-10-13T21:07:47;95366.81;;;11.64;100.00
7990;BME280;4040;42.848;23.034;2023-10-13T21:13:36;95357.94;;;11.67;100.00
7990;BME280;4040;42.848;23.034;2023-10-13T21:19:25;95373.75;;;11.65;100.00
7990;BME280;4040;42.848;23.034;2023-10-13T21:25:16;95363.72;;;11.62;100.00
7990;BME280;4040;42.848;23.034;2023-10-13T21:31:09;95352.19;;;11.58;100.00
7990;BME280;4040;42.848;23.034;2023-10-13T21:36:58;95347.59;;;11.48;100.00
7990;BME280;4040;42.848;23.034;2023-10-13T21:42:49;95353.81;;;11.38;100.00
7990;BME280;4040;42.848;23.034;2023-10-13T21:52:42;95350.66;;;11.50;100.00
7990;BME280;4040;42.848;23.034;2023-10-13T21:58:33;95347.63;;;11.41;100.00
7990;BME280;4040;42.848;23.034;2023-10-13T22:08:39;95326.66;;;10.98;100.00
7990;BME280;4040;42.848;23.034;2023-10-13T22:14:28;95335.47;;;10.98;100.00
7990;BME280;4040;42.848;23.034;2023-10-13T22:20:17;95338.59;;;10.90;100.00
7990;BME280;4040;42.848;23.034;2023-10-13T22:26:11;95344.03;;;10.65;100.00
7990;BME280;4040;42.848;23.034;2023-10-13T22:32:00;95342.56;;;10.50;100.00
7990;BME280;4040;42.848;23.034;2023-10-13T22:37:50;95334.06;;;10.55;100.00
7990;BME280;4040;42.848;23.034;2023-10-13T22:43:41;95335.63;;;10.42;100.00
7990;BME280;4040;42.848;23.034;2023-10-13T22:49:29;95349.50;;;10.34;100.00
7990;BME280;4040;42.848;23.034;2023-10-13T22:55:19;95356.38;;;10.45;100.00
7990;BME280;4040;42.848;23.034;2023-10-13T23:01:09;95344.47;;;10.64;100.00
7990;BME280;4040;42.848;23.034;2023-10-13T23:07:03;95352.94;;;10.45;100.00
7990;BME280;4040;42.848;23.034;2023-10-13T23:09:43;95351.03;;;10.31;100.00
7990;BME280;4040;42.848;23.034;2023-10-13T23:15:35;95337.16;;;10.01;100.00
7990;BME280;4040;42.848;23.034;2023-10-13T23:21:26;95361.03;;;10.07;100.00
7990;BME280;4040;42.848;23.034;2023-10-13T23:27:15;95350.97;;;9.65;100.00
7990;BME280;4040;42.848;23.034;2023-10-13T23:33:06;95343.28;;;9.71;100.00
7990;BME280;4040;42.848;23.034;2023-10-13T23:35:37;95345.59;;;9.69;100.00
7990;BME280;4040;42.848;23.034;2023-10-13T23:41:29;95330.97;;;9.49;100.00
7990;BME280;4040;42.848;23.034;2023-10-13T23:47:19;95328.59;;;9.30;100.00
7990;BME280;4040;42.848;23.034;2023-10-13T23:53:14;95328.19;;;9.21;100.00
7990;BME280;4040;42.848;23.034;2023-10-13T23:59:09;95330.13;;;9.31;100.00
